Time;durP1;ratioP1;P1;durP2;ratioP2;P2;SDS_P1;SDS_P2;PMS_P1;PMS_P2;Temp;Humidity;BMP_temperature;BMP_pressure;BME280_temperature;BME280_humidity;BME280_pressure;Samples;Min_cycle;Max_cycle;Signal;HPM_P1;HPM_P2
2022/01/22 00:01:50;;;;;;;2.28;1.00;;;;;;;-2.02;67.46;100864.00;4501800;31;20092;-71
2022/01/22 00:04:18;;;;;;;4.65;1.40;;;;;;;-1.99;66.89;100859.88;4501676;31;20100;-71
2022/01/22 00:06:46;;;;;;;3.55;1.40;;;;;;;-1.88;66.19;100855.19;4501894;31;20521;-71
2022/01/22 00:09:38;;;;;;;1.92;1.30;;;;;;;-1.81;65.64;100857.25;4502024;31;20102;-71
2022/01/22 00:12:10;;;;;;;2.47;0.93;;;;;;;-1.76;65.18;100841.97;4501881;31;20152;-71
2022/01/22 00:14:39;;;;;;;6.20;1.80;;;;;;;-1.80;65.20;100845.19;4501662;31;20104;-71
2022/01/22 00:17:06;;;;;;;3.30;1.20;;;;;;;-1.85;65.61;100855.34;4501616;31;20092;-71
2022/01/22 00:19:33;;;;;;;6.30;1.52;;;;;;;-1.84;65.33;100858.81;4501521;31;20491;-71
2022/01/22 00:22:01;;;;;;;2.50;1.23;;;;;;;-1.87;65.63;100853.50;4501579;31;20113;-71
2022/01/22 00:24:36;;;;;;;2.87;1.40;;;;;;;-1.84;65.34;100848.47;4501465;31;20088;-71
2022/01/22 00:27:06;;;;;;;5.37;1.62;;;;;;;-1.80;64.92;100850.37;4501436;31;20091;-71
2022/01/22 00:29:33;;;;;;;6.12;1.77;;;;;;;-1.69;64.44;100841.44;4501204;31;20075;-71
2022/01/22 00:32:01;;;;;;;2.62;1.23;;;;;;;-1.67;64.40;100841.47;4501488;31;20202;-71
2022/01/22 00:34:29;;;;;;;1.60;1.40;;;;;;;-1.79;64.80;100849.56;4501440;31;20158;-71
2022/01/22 00:36:56;;;;;;;5.35;1.10;;;;;;;-1.62;63.86;100834.84;4500879;31;20092;-71
2022/01/22 00:39:23;;;;;;;3.45;1.30;;;;;;;-1.65;63.82;100838.16;4500596;31;20160;-71
2022/01/22 00:41:50;;;;;;;3.80;1.02;;;;;;;-1.57;63.68;100834.22;4501333;31;20529;-71
2022/01/22 00:44:17;;;;;;;2.85;1.55;;;;;;;-1.57;63.48;100836.78;4501320;31;20096;-71
2022/01/22 00:46:45;;;;;;;3.35;1.65;;;;;;;-1.56;63.55;100845.41;4501345;31;20152;-71
2022/01/22 00:49:12;;;;;;;3.03;1.23;;;;;;;-1.52;63.59;100849.91;4501135;31;20087;-71
2022/01/22 00:51:39;;;;;;;2.70;1.45;;;;;;;-1.48;63.42;100836.34;4501166;31;20087;-71
2022/01/22 00:54:06;;;;;;;5.32;1.35;;;;;;;-1.45;63.34;100834.75;4500997;31;20160;-71
2022/01/22 00:56:34;;;;;;;1.87;0.85;;;;;;;-1.43;63.45;100828.75;4501054;31;20100;-71
2022/01/22 00:59:01;;;;;;;6.68;1.62;;;;;;;-1.46;63.65;100816.59;4501300;31;20130;-71
2022/01/22 01:01:28;;;;;;;4.97;1.70;;;;;;;-1.52;63.96;100811.13;4501216;31;20096;-71
2022/01/22 01:04:01;;;;;;;3.30;1.33;;;;;;;-1.52;64.23;100824.97;4500958;31;20492;-71
2022/01/22 01:06:28;;;;;;;4.07;1.05;;;;;;;-1.48;64.38;100818.25;4501181;31;20100;-71
2022/01/22 01:08:59;;;;;;;3.67;1.12;;;;;;;-1.41;64.03;100809.03;4500921;31;20084;-71
2022/01/22 01:11:29;;;;;;;1.83;1.33;;;;;;;-1.38;63.97;100809.16;4501055;31;20099;-71
2022/01/22 01:14:00;;;;;;;3.83;1.20;;;;;;;-1.40;63.96;100800.47;4500960;31;20112;-71
2022/01/22 01:33:18;;;;;;;3.22;1.27;;;;;;;-1.46;65.01;100736.47;4500753;31;20088;-71
2022/01/22 01:35:46;;;;;;;5.80;1.52;;;;;;;-1.43;64.92;100741.78;4500547;31;20682;-71
2022/01/22 01:38:14;;;;;;;2.25;1.20;;;;;;;-1.39;65.07;100741.06;4500544;31;20099;-71
2022/01/22 01:40:44;;;;;;;2.10;1.25;;;;;;;-1.32;64.87;100739.63;4500334;31;20507;-71
2022/01/22 01:43:24;;;;;;;2.83;1.20;;;;;;;-1.25;64.82;100733.91;4500694;31;20130;-71
2022/01/22 01:45:54;;;;;;;3.80;1.00;;;;;;;-1.20;64.80;100722.06;4500497;31;20115;-71
2022/01/22 01:48:26;;;;;;;2.30;1.45;;;;;;;-1.18;64.91;100714.34;4500251;31;20550;-71
2022/01/22 01:50:55;;;;;;;1.60;0.90;;;;;;;-1.07;64.89;100713.94;4502741;31;20492;-71
2022/01/22 01:58:55;;;;;;;5.87;1.15;;;;;;;-0.92;64.42;100686.94;4502714;31;20159;-71
2022/01/22 02:01:22;;;;;;;0.50;0.50;;;;;;;-0.94;64.60;100675.66;4502701;31;20105;-71
2022/01/22 02:03:50;;;;;;;1.40;0.80;;;;;;;-0.91;64.34;100674.06;4502823;31;20088;-71
2022/01/22 02:06:18;;;;;;;1.40;1.00;;;;;;;-0.98;64.52;100667.78;4502603;31;20481;-71
2022/01/22 02:08:45;;;;;;;1.12;0.70;;;;;;;-0.96;64.35;100665.22;4502663;31;20427;-71
2022/01/22 02:11:16;;;;;;;1.35;0.60;;;;;;;-0.91;63.83;100636.97;4502526;31;20772;-71
2022/01/22 02:23:31;;;;;;;4.37;0.80;;;;;;;-1.02;64.15;100628.81;4502619;31;20155;-71
2022/01/22 02:25:09;;;;;;;0.70;0.70;;;;;;;-0.87;62.30;100628.50;4502505;31;20076;-71
2022/01/22 02:27:36;;;;;;;1.55;1.00;;;;;;;-0.88;62.06;100624.13;4502203;31;20537;-71
2022/01/22 02:30:05;;;;;;;1.90;0.75;;;;;;;-0.87;62.10;100628.50;4502442;31;20203;-71
2022/01/22 02:35:31;;;;;;;1.20;0.30;;;;;;;-0.88;61.89;100622.47;4502531;31;20068;-71
2022/01/22 02:38:07;;;;;;;5.72;0.80;;;;;;;-0.88;62.04;100621.56;4487251;31;20153;-71
2022/01/22 02:40:42;;;;;;;3.60;1.30;;;;;;;-1.08;63.00;100624.28;4502215;31;20199;-71
2022/01/22 02:43:11;;;;;;;1.83;0.98;;;;;;;-1.24;64.45;100620.22;4502374;31;20142;-71
2022/01/22 02:45:41;;;;;;;0.95;0.95;;;;;;;-1.44;65.75;100615.97;4502137;31;20083;-71
2022/01/22 02:48:09;;;;;;;2.20;1.35;;;;;;;-1.52;66.48;100619.91;4502223;31;20115;-71
2022/01/22 02:50:36;;;;;;;1.48;1.10;;;;;;;-1.57;66.74;100624.91;4502290;31;20507;-71
2022/01/22 02:53:08;;;;;;;4.20;1.50;;;;;;;-1.70;67.39;100610.63;4502197;31;20136;-71
2022/01/22 02:55:36;;;;;;;1.02;0.77;;;;;;;-1.78;67.95;100612.00;4502399;31;20095;-71
2022/01/22 02:58:05;;;;;;;9.05;1.42;;;;;;;-1.68;67.54;100605.50;4502007;31;20092;-71
2022/01/22 03:00:33;;;;;;;3.25;0.88;;;;;;;-1.65;67.61;100613.37;4501365;31;20558;-71
2022/01/22 03:03:02;;;;;;;2.67;1.40;;;;;;;-1.64;67.53;100612.56;4501989;31;20083;-71
2022/01/22 03:05:29;;;;;;;5.20;1.00;;;;;;;-1.68;67.71;100597.75;4502243;31;20095;-71
2022/01/22 03:07:58;;;;;;;2.05;0.95;;;;;;;-1.74;67.93;100603.53;4502097;31;20092;-71
2022/01/22 03:10:27;;;;;;;3.72;1.35;;;;;;;-1.64;67.66;100597.06;4501900;31;20104;-71
2022/01/22 03:15:48;;;;;;;2.65;1.65;;;;;;;-1.65;67.76;100590.13;4502296;31;20087;-71
2022/01/22 03:18:33;;;;;;;2.40;1.12;;;;;;;-1.72;67.99;100588.12;4501922;31;20095;-71
2022/01/22 03:29:29;;;;;;;3.22;1.30;;;;;;;-1.32;66.63;100576.78;4501663;31;20099;-71
2022/01/22 03:31:58;;;;;;;2.45;1.08;;;;;;;-1.22;66.43;100582.38;4502083;31;20091;-71
2022/01/22 03:34:28;;;;;;;5.28;1.42;;;;;;;-1.21;66.34;100586.69;4502016;31;20135;-71
2022/01/22 03:36:55;;;;;;;1.48;0.98;;;;;;;-1.12;65.96;100573.25;4501871;31;20129;-71
2022/01/22 03:39:24;;;;;;;3.62;1.30;;;;;;;-1.02;65.72;100575.38;4501889;31;20508;-71
2022/01/22 03:41:52;;;;;;;2.72;0.98;;;;;;;-1.03;65.69;100565.84;4502073;31;20540;-71
2022/01/22 03:44:20;;;;;;;4.47;1.20;;;;;;;-0.94;65.88;100570.50;4501739;31;20080;-71
2022/01/22 03:46:47;;;;;;;3.42;1.00;;;;;;;-0.93;65.44;100579.13;4501940;31;20108;-71
2022/01/22 03:49:16;;;;;;;2.87;1.60;;;;;;;-0.80;65.14;100569.28;4501545;31;20096;-71
2022/01/22 03:51:44;;;;;;;0.98;0.77;;;;;;;-0.81;64.86;100557.19;4502029;31;20112;-71
2022/01/22 03:54:12;;;;;;;2.40;1.12;;;;;;;-0.78;65.02;100546.97;4501858;31;20088;-71
2022/01/22 03:56:43;;;;;;;1.90;0.98;;;;;;;-0.83;65.49;100545.00;4501604;31;20488;-71
2022/01/22 03:59:12;;;;;;;2.10;1.25;;;;;;;-0.75;66.40;100544.44;4501965;31;20103;-71
2022/01/22 04:04:36;;;;;;;2.97;2.35;;;;;;;-0.92;69.41;100550.72;4501819;31;20505;-71
2022/01/22 04:08:06;;;;;;;1.42;1.05;;;;;;;-0.96;72.67;100547.12;4501800;31;20104;-71
2022/01/22 04:09:54;;;;;;;3.30;1.45;;;;;;;-1.12;76.43;100559.47;4490578;31;20091;-71
2022/01/22 04:12:30;;;;;;;5.03;1.12;;;;;;;-1.21;79.39;100565.16;4501333;31;20152;-71
2022/01/22 04:15:01;;;;;;;1.20;1.10;;;;;;;-1.24;81.05;100559.84;4501585;31;20131;-71
2022/01/22 04:25:36;;;;;;;5.35;1.52;;;;;;;-1.54;86.06;100544.06;4501492;31;20072;-71
2022/01/22 04:28:03;;;;;;;1.75;1.02;;;;;;;-1.64;89.33;100550.56;4501406;31;20088;-71
2022/01/22 04:30:31;;;;;;;3.05;1.30;;;;;;;-1.63;91.20;100552.31;4501471;31;20087;-71
2022/01/22 04:33:00;;;;;;;6.10;2.40;;;;;;;-1.69;93.18;100550.38;4501342;31;20099;-71
2022/01/22 04:35:27;;;;;;;2.75;1.90;;;;;;;-1.67;94.61;100552.13;4501351;31;20131;-71
2022/01/22 04:37:54;;;;;;;4.12;2.10;;;;;;;-1.89;97.41;100542.66;4501209;31;20515;-71
2022/01/22 04:40:22;;;;;;;6.65;2.03;;;;;;;-1.96;98.96;100533.78;4501152;31;20088;-71
2022/01/22 04:42:49;;;;;;;6.47;2.42;;;;;;;-1.99;99.83;100534.50;4501191;31;20171;-72
2022/01/22 04:48:07;;;;;;;5.28;2.55;;;;;;;-2.03;100.00;100522.31;4501421;31;20103;-71
2022/01/22 04:55:48;;;;;;;7.15;3.20;;;;;;;-2.05;100.00;100516.22;4501277;31;20503;-72
2022/01/22 04:58:16;;;;;;;6.03;3.67;;;;;;;-2.06;100.00;100516.13;4501350;31;20083;-72
2022/01/22 05:00:45;;;;;;;2.60;2.33;;;;;;;-1.95;100.00;100520.91;4501022;31;20371;-71
2022/01/22 05:03:15;;;;;;;5.40;2.25;;;;;;;-1.98;100.00;100515.66;4501097;31;20107;-71
2022/01/22 05:05:43;;;;;;;4.30;2.60;;;;;;;-2.08;100.00;100516.09;4501419;31;20095;-72
2022/01/22 05:08:11;;;;;;;4.07;2.30;;;;;;;-2.05;100.00;100521.38;4501183;31;20159;-71
2022/01/22 05:10:38;;;;;;;3.83;2.35;;;;;;;-1.98;100.00;100523.38;4500894;31;20091;-72
2022/01/22 05:13:07;;;;;;;4.55;2.40;;;;;;;-1.96;100.00;100528.59;4501304;31;20159;-72
2022/01/22 05:15:34;;;;;;;4.75;2.72;;;;;;;-2.07;100.00;100523.00;4500986;31;20095;-71
2022/01/22 05:18:05;;;;;;;4.28;2.50;;;;;;;-2.08;100.00;100526.41;4501038;31;20091;-71
2022/01/22 05:20:42;;;;;;;5.80;3.22;;;;;;;-2.09;100.00;100527.22;4501047;31;20092;-72
2022/01/22 05:23:15;;;;;;;4.50;2.60;;;;;;;-2.16;100.00;100522.63;4501033;31;20182;-72
2022/01/22 05:25:50;;;;;;;4.57;2.70;;;;;;;-2.09;100.00;100526.31;4502830;31;20428;-72
2022/01/22 05:39:24;;;;;;;8.38;3.08;;;;;;;-2.14;100.00;100527.84;4436896;32;20140;-72
2022/01/22 05:41:52;;;;;;;6.70;4.10;;;;;;;-2.10;100.00;100527.16;4491708;31;20451;-71
2022/01/22 05:44:19;;;;;;;6.03;3.08;;;;;;;-1.99;100.00;100529.34;4502976;31;20461;-72
2022/01/22 05:46:48;;;;;;;5.93;3.60;;;;;;;-2.06;100.00;100529.03;4502897;31;20448;-72
2022/01/22 05:49:15;;;;;;;8.00;3.60;;;;;;;-2.06;100.00;100519.59;4502558;31;20143;-72
2022/01/22 05:51:45;;;;;;;7.55;3.30;;;;;;;-2.06;100.00;100521.28;4487765;31;20133;-72
2022/01/22 05:54:33;;;;;;;6.50;3.65;;;;;;;-2.02;100.00;100513.72;4502763;31;20115;-72
2022/01/22 05:59:47;;;;;;;8.57;3.10;;;;;;;-1.96;100.00;100520.84;4502947;31;20083;-71
2022/01/22 06:02:17;;;;;;;6.87;3.15;;;;;;;-1.96;100.00;100520.84;4502384;31;20092;-72
2022/01/22 06:04:46;;;;;;;8.25;3.97;;;;;;;-1.89;100.00;100519.41;4502782;31;20122;-72
2022/01/22 06:07:14;;;;;;;8.50;3.65;;;;;;;-1.94;100.00;100530.44;4502673;31;20075;-72
2022/01/22 06:12:46;;;;;;;5.78;3.90;;;;;;;-1.79;100.00;100537.03;4502720;31;20535;-72
2022/01/22 06:15:14;;;;;;;10.55;3.97;;;;;;;-1.92;100.00;100535.66;4502812;31;20115;-72
2022/01/22 06:17:42;;;;;;;6.53;3.90;;;;;;;-1.85;100.00;100535.06;4502399;31;20114;-72
2022/01/22 06:20:13;;;;;;;5.95;3.83;;;;;;;-1.88;100.00;100537.53;4502385;31;20117;-71
2022/01/22 06:22:41;;;;;;;6.55;3.40;;;;;;;-1.88;100.00;100536.66;4502350;31;20118;-72
2022/01/22 06:25:10;;;;;;;12.37;4.55;;;;;;;-1.88;100.00;100546.97;4502565;31;20104;-72
2022/01/22 06:27:37;;;;;;;13.20;4.90;;;;;;;-1.87;100.00;100551.31;4502455;31;20485;-72
2022/01/22 06:30:04;;;;;;;10.65;4.32;;;;;;;-1.84;100.00;100556.63;4502013;31;20096;-72
2022/01/22 06:32:33;;;;;;;7.50;4.32;;;;;;;-1.73;100.00;100565.72;4502537;31;20115;-72
2022/01/22 06:35:00;;;;;;;9.43;4.78;;;;;;;-1.79;100.00;100561.16;4486976;31;20172;-71
2022/01/22 06:37:28;;;;;;;8.57;4.37;;;;;;;-1.56;100.00;100562.06;4501724;31;20083;-72
2022/01/22 06:42:39;;;;;;;9.20;4.53;;;;;;;-1.17;99.86;100566.13;4502360;31;20099;-72
2022/01/22 06:45:09;;;;;;;10.38;5.32;;;;;;;-1.16;97.84;100568.81;4502297;31;20092;-72
2022/01/22 06:47:40;;;;;;;14.65;4.80;;;;;;;-1.18;99.44;100574.72;4502399;31;20511;-72
2022/01/22 06:50:09;;;;;;;13.32;5.50;;;;;;;-1.09;97.58;100565.63;4502397;31;20451;-72
2022/01/22 06:52:44;;;;;;;9.95;4.97;;;;;;;-0.97;97.21;100568.66;4502261;31;20673;-72
2022/01/22 06:55:15;;;;;;;15.27;6.50;;;;;;;-0.90;96.86;100566.31;4502259;31;20172;-72
2022/01/22 06:57:43;;;;;;;13.88;6.45;;;;;;;-1.02;97.85;100556.41;4502379;31;20107;-72
2022/01/22 07:00:12;;;;;;;12.30;5.45;;;;;;;-1.08;98.73;100553.56;4502301;31;20129;-72
2022/01/22 07:02:43;;;;;;;9.27;4.87;;;;;;;-1.20;99.83;100548.84;4502147;31;20111;-72
2022/01/22 07:05:10;;;;;;;8.60;5.03;;;;;;;-1.09;99.17;100550.13;4502298;31;20198;-72
2022/01/22 07:07:38;;;;;;;6.97;4.65;;;;;;;-1.20;99.68;100554.00;4502200;31;20151;-72
2022/01/22 07:10:06;;;;;;;6.25;3.47;;;;;;;-1.17;99.80;100555.81;4502177;31;20560;-72
2022/01/22 07:12:33;;;;;;;3.95;1.92;;;;;;;-1.06;99.41;100560.56;4501859;31;20103;-72
2022/01/22 07:15:02;;;;;;;2.95;1.70;;;;;;;-0.75;98.27;100559.97;4502228;31;20514;-72
2022/01/22 07:17:35;;;;;;;3.70;1.60;;;;;;;-0.63;98.05;100562.16;4501953;31;20161;-72
2022/01/22 07:20:13;;;;;;;1.95;1.42;;;;;;;-0.38;96.94;100563.00;4502191;31;20160;-72
2022/01/22 07:22:53;;;;;;;3.03;1.77;;;;;;;-0.36;96.46;100572.56;4502061;31;20173;-72
2022/01/22 07:25:21;;;;;;;4.35;2.25;;;;;;;-0.33;96.48;100574.41;4501922;31;20186;-72
2022/01/22 07:27:49;;;;;;;4.12;1.73;;;;;;;-0.26;96.28;100573.78;4502155;31;20088;-72
2022/01/22 07:30:17;;;;;;;2.37;2.17;;;;;;;-0.37;96.47;100569.94;4501871;31;20092;-72
2022/01/22 07:32:45;;;;;;;2.05;1.83;;;;;;;-0.35;96.31;100578.66;4501963;31;20119;-72
2022/01/22 07:35:15;;;;;;;3.45;1.27;;;;;;;-0.31;96.47;100581.41;4501968;31;20527;-72
2022/01/22 07:37:43;;;;;;;4.28;2.17;;;;;;;-0.27;96.00;100575.50;4501950;31;20428;-72
2022/01/22 07:40:12;;;;;;;2.83;2.55;;;;;;;-0.31;96.19;100583.13;4501996;31;20164;-72
2022/01/22 07:42:42;;;;;;;3.25;2.40;;;;;;;-0.21;95.80;100581.69;4501760;31;20121;-72
2022/01/22 07:45:11;;;;;;;4.97;2.80;;;;;;;-0.21;95.61;100577.44;4501996;31;20487;-72
2022/01/22 07:47:40;;;;;;;1.80;1.33;;;;;;;-0.23;95.82;100567.84;4501371;31;20080;-72
2022/01/22 07:50:10;;;;;;;3.25;1.92;;;;;;;-0.11;95.32;100563.06;4501833;31;20842;-72
2022/01/22 07:52:37;;;;;;;3.67;1.98;;;;;;;-0.18;95.18;100561.97;4501841;31;20103;-72
2022/01/22 07:55:07;;;;;;;2.33;2.12;;;;;;;-0.15;95.69;100577.62;4501868;31;20475;-72
2022/01/22 07:57:34;;;;;;;2.87;1.67;;;;;;;-0.16;95.54;100572.41;4501855;31;20080;-72
2022/01/22 08:00:06;;;;;;;2.50;2.28;;;;;;;-0.17;95.06;100561.16;4501916;31;20483;-72
2022/01/22 08:02:41;;;;;;;3.30;1.95;;;;;;;-0.07;94.91;100560.66;4501690;31;20150;-72
2022/01/22 08:05:12;;;;;;;4.93;2.08;;;;;;;-0.01;94.49;100565.13;4502005;31;20100;-72
2022/01/22 08:07:48;;;;;;;3.47;1.98;;;;;;;0.06;93.54;100566.22;4501602;31;20167;-72
2022/01/22 08:10:18;;;;;;;4.78;2.47;;;;;;;0.07;93.09;100561.12;4501425;31;20087;-72
2022/01/22 08:12:49;;;;;;;4.32;2.47;;;;;;;0.03;93.35;100571.31;4501649;31;20096;-72
2022/01/22 08:15:18;;;;;;;3.10;2.47;;;;;;;0.20;93.18;100568.44;4501734;31;20099;-72
2022/01/22 08:17:45;;;;;;;3.78;3.03;;;;;;;0.43;92.35;100573.50;4501806;31;20095;-72
2022/01/22 08:20:15;;;;;;;5.53;3.55;;;;;;;0.61;90.80;100575.78;4501503;31;20147;-72
2022/01/22 08:22:45;;;;;;;3.90;3.12;;;;;;;0.56;90.57;100580.81;4501604;31;20133;-72
2022/01/22 08:25:14;;;;;;;3.72;2.62;;;;;;;0.61;90.64;100578.38;4501661;31;20107;-72
2022/01/22 08:30:30;;;;;;;3.78;3.10;;;;;;;0.82;89.62;100593.75;4501515;31;20540;-73
2022/01/22 08:33:31;;;;;;;7.20;3.20;;;;;;;0.97;89.19;100599.37;4501416;31;20134;-72
2022/01/22 08:35:54;;;;;;;;;;;;;;;1.23;88.04;100591.47;4500499;31;20500;-72
2022/01/22 08:38:26;;;;;;;8.55;5.12;;;;;;;1.14;87.15;100600.78;4501576;31;20030;-72
2022/01/22 08:40:54;;;;;;;45.78;15.05;;;;;;;0.99;87.56;100605.50;4501710;31;20072;-72
2022/01/22 08:43:25;;;;;;;32.55;12.80;;;;;;;1.06;87.61;100611.75;4501257;31;20515;-72
2022/01/22 08:45:53;;;;;;;15.52;7.50;;;;;;;1.21;87.15;100608.75;4501172;31;20598;-72
2022/01/22 08:48:21;;;;;;;12.52;5.90;;;;;;;1.12;86.31;100625.78;4501541;31;20144;-73
2022/01/22 08:50:50;;;;;;;16.00;5.03;;;;;;;0.80;88.77;100634.28;4501194;31;20455;-72
2022/01/22 08:53:37;;;;;;;8.80;4.35;;;;;;;0.75;88.90;100626.38;4501252;31;20092;-72
2022/01/22 08:56:07;;;;;;;9.25;3.17;;;;;;;0.75;88.53;100634.16;4501065;31;20095;-72
2022/01/22 08:58:36;;;;;;;7.00;4.10;;;;;;;0.74;88.22;100627.19;4499807;31;20079;-72
2022/01/22 09:01:05;;;;;;;7.40;2.97;;;;;;;0.79;88.87;100612.66;4501200;31;20427;-72
2022/01/22 09:03:33;;;;;;;4.18;2.90;;;;;;;0.91;87.90;100626.00;4500809;31;20127;-72
2022/01/22 09:06:05;;;;;;;3.83;2.85;;;;;;;0.94;88.02;100631.28;4501038;31;20104;-72
2022/01/22 09:08:35;;;;;;;2.90;2.40;;;;;;;0.94;87.01;100627.81;4501108;31;20109;-73
2022/01/22 09:11:03;;;;;;;3.33;2.60;;;;;;;1.07;86.48;100637.75;4500766;31;20152;-72
2022/01/22 09:13:33;;;;;;;7.37;3.97;;;;;;;1.14;85.58;100631.03;4500988;31;20092;-72
2022/01/22 09:16:03;;;;;;;10.38;4.53;;;;;;;1.26;84.96;100644.37;4500734;31;20091;-72
2022/01/22 09:18:30;;;;;;;4.15;2.70;;;;;;;1.25;83.29;100653.00;4501096;31;20091;-72
2022/01/22 09:23:31;;;;;;;4.62;2.85;;;;;;;1.29;83.09;100662.62;4500828;31;20406;-72
2022/01/22 09:26:00;;;;;;;4.37;2.92;;;;;;;1.39;82.48;100664.66;4500908;31;20184;-72
2022/01/22 09:28:27;;;;;;;4.28;2.50;;;;;;;1.50;81.82;100666.69;4500662;31;20121;-72
2022/01/22 09:30:56;;;;;;;2.22;1.92;;;;;;;1.46;80.84;100670.94;4500811;31;20091;-72
2022/01/22 09:33:23;;;;;;;4.45;2.60;;;;;;;1.54;80.71;100677.22;4500557;31;20107;-72
2022/01/22 09:35:51;;;;;;;1.25;1.20;;;;;;;1.70;79.57;100675.97;4500711;31;20127;-72
2022/01/22 09:38:18;;;;;;;2.72;2.15;;;;;;;1.63;78.73;100689.59;4500463;31;20113;-72
2022/01/22 09:40:46;;;;;;;2.00;1.37;;;;;;;1.61;79.24;100686.94;4500435;31;20593;-72
2022/01/22 09:43:13;;;;;;;3.22;1.80;;;;;;;1.64;78.32;100693.97;4500296;31;20088;-72
2022/01/22 09:45:41;;;;;;;5.85;2.05;;;;;;;1.67;78.71;100687.13;4500640;31;20107;-72
2022/01/22 09:48:08;;;;;;;2.20;2.00;;;;;;;1.74;77.73;100685.59;4500373;31;20400;-72
2022/01/22 09:50:36;;;;;;;1.83;1.73;;;;;;;1.89;78.09;100683.41;4500411;31;20483;-72
2022/01/22 09:53:07;;;;;;;4.65;1.73;;;;;;;1.96;77.50;100679.28;4500342;31;20084;-72
2022/01/22 09:55:35;;;;;;;6.97;1.80;;;;;;;2.06;75.60;100686.50;4500438;31;20092;-72
2022/01/22 09:58:03;;;;;;;1.27;1.17;;;;;;;2.02;74.58;100678.56;4500209;31;20418;-72
2022/01/22 10:00:31;;;;;;;2.53;2.00;;;;;;;2.08;75.39;100683.91;4500098;31;20083;-72
2022/01/22 10:03:00;;;;;;;2.87;1.87;;;;;;;2.18;74.57;100675.53;4500278;31;20395;-72
2022/01/22 10:05:27;;;;;;;1.92;1.70;;;;;;;2.50;73.44;100678.97;4500203;31;20155;-72
2022/01/22 10:08:24;;;;;;;1.35;1.25;;;;;;;2.61;73.09;100681.84;4500006;31;20134;-72
2022/01/22 10:10:55;;;;;;;1.30;1.20;;;;;;;2.81;71.33;100675.41;4501343;31;20080;-72
2022/01/22 10:13:52;;;;;;;2.83;2.00;;;;;;;2.83;71.28;100671.13;4502530;31;20249;-72
2022/01/22 10:16:34;;;;;;;2.17;1.70;;;;;;;3.15;70.15;100681.41;4502499;31;20109;-72
2022/01/22 10:19:13;;;;;;;2.90;1.98;;;;;;;3.24;70.01;100686.81;4502428;31;20448;-72
2022/01/22 10:21:43;;;;;;;2.12;1.92;;;;;;;3.24;67.09;100683.34;4502535;31;20095;-72
2022/01/22 10:27:31;;;;;;;6.87;2.78;;;;;;;3.73;65.28;100690.47;4502274;31;20188;-72
2022/01/22 10:30:12;;;;;;;3.97;2.50;;;;;;;3.82;66.23;100688.09;4501971;31;20126;-72
2022/01/22 10:32:47;;;;;;;3.00;2.03;;;;;;;3.98;65.33;100699.69;4502319;31;20084;-72
2022/01/22 10:35:17;;;;;;;2.22;1.90;;;;;;;3.93;64.29;100698.72;4502454;31;20091;-72
2022/01/22 10:38:06;;;;;;;2.15;1.95;;;;;;;4.15;64.15;100706.97;4502277;31;20138;-72
2022/01/22 10:40:38;;;;;;;5.93;2.35;;;;;;;4.85;61.64;100702.13;4501904;31;20654;-72
2022/01/22 10:43:16;;;;;;;3.08;1.95;;;;;;;5.22;59.81;100700.97;4502232;31;20080;-72
2022/01/22 10:46:08;;;;;;;12.13;2.42;;;;;;;5.70;57.09;100697.28;4502167;31;20127;-72
2022/01/22 10:48:39;;;;;;;3.30;2.50;;;;;;;6.20;54.13;100704.87;4502379;31;20126;-72
2022/01/22 10:51:15;;;;;;;5.85;2.30;;;;;;;6.97;54.31;100709.13;4502186;31;20071;-72
2022/01/22 10:54:03;;;;;;;4.50;2.45;;;;;;;7.74;50.75;100700.00;4502312;31;20506;-72
2022/01/22 10:56:31;;;;;;;3.75;2.45;;;;;;;8.57;49.45;100710.78;4502034;31;20554;-72
2022/01/22 10:59:07;;;;;;;6.10;2.55;;;;;;;9.55;47.46;100716.88;4502100;31;20122;-72
2022/01/22 11:01:53;;;;;;;3.35;2.33;;;;;;;10.06;44.69;100719.31;4502152;31;20106;-72
2022/01/22 11:04:34;;;;;;;2.35;2.00;;;;;;;9.69;44.53;100723.84;4502250;31;20118;-72
2022/01/22 11:07:07;;;;;;;2.80;2.28;;;;;;;10.27;43.83;100728.91;4502108;31;20123;-72
2022/01/22 11:09:55;;;;;;;3.62;2.42;;;;;;;9.81;43.62;100729.06;4502275;31;20159;-72
2022/01/22 11:12:22;;;;;;;4.00;2.17;;;;;;;9.84;44.22;100734.31;4501956;31;20495;-72
2022/01/22 11:14:49;;;;;;;2.50;2.03;;;;;;;9.58;43.84;100735.28;4501952;31;20122;-72
2022/01/22 11:17:18;;;;;;;4.60;2.00;;;;;;;9.65;43.82;100741.41;4501803;31;20155;-72
2022/01/22 11:19:48;;;;;;;2.70;1.40;;;;;;;9.26;44.06;100742.34;4501868;31;20840;-72
2022/01/22 11:22:18;;;;;;;3.35;1.87;;;;;;;8.94;42.42;100744.94;4501079;31;20084;-72
2022/01/22 11:24:51;;;;;;;2.45;1.70;;;;;;;8.99;43.33;100756.34;4501971;31;20114;-73
2022/01/22 11:27:20;;;;;;;2.40;1.60;;;;;;;8.97;42.92;100756.34;4502007;31;20528;-73
2022/01/22 11:29:56;;;;;;;2.35;1.77;;;;;;;9.70;40.82;100763.31;4501474;31;20252;-73
2022/01/22 11:32:29;;;;;;;1.52;1.42;;;;;;;8.83;43.07;100758.97;4501921;31;20109;-73
2022/01/22 11:35:00;;;;;;;1.70;1.60;;;;;;;9.99;41.24;100759.72;4501857;31;20114;-73
2022/01/22 11:37:47;;;;;;;1.58;1.48;;;;;;;9.69;39.85;100764.19;4501776;31;20112;-73
2022/01/22 11:40:27;;;;;;;1.60;1.40;;;;;;;9.56;39.99;100765.09;4501987;31;20152;-73
2022/01/22 11:43:23;;;;;;;2.55;1.50;;;;;;;9.56;40.51;100765.97;4501782;31;20502;-73
2022/01/22 11:45:54;;;;;;;1.60;1.50;;;;;;;9.91;40.10;100778.16;4501741;31;20128;-73
2022/01/22 11:48:26;;;;;;;1.12;0.88;;;;;;;9.65;38.96;100780.88;4501775;31;20441;-73
2022/01/22 11:50:55;;;;;;;1.73;1.15;;;;;;;8.84;39.25;100775.63;4501826;31;20542;-73
2022/01/22 11:53:23;;;;;;;1.45;1.12;;;;;;;8.58;40.38;100781.69;4501613;31;20532;-72
2022/01/22 11:56:21;;;;;;;2.53;1.70;;;;;;;8.53;39.72;100785.19;4501656;31;20511;-73
2022/01/22 11:59:01;;;;;;;2.00;1.23;;;;;;;9.96;40.14;100773.75;4501789;31;20123;-73
2022/01/22 12:02:04;;;;;;;1.95;1.40;;;;;;;11.14;35.68;100775.78;4501560;31;20096;-73
2022/01/22 12:04:38;;;;;;;2.35;1.73;;;;;;;11.09;34.49;100784.59;4499076;31;20143;-73
2022/01/22 12:07:06;;;;;;;2.70;1.58;;;;;;;10.89;37.05;100788.28;4501601;31;20088;-73
2022/01/22 12:09:50;;;;;;;1.42;1.23;;;;;;;11.10;34.86;100796.94;4501776;31;20606;-73
2022/01/22 12:15:40;;;;;;;2.87;1.60;;;;;;;12.23;36.43;100805.56;4471360;31;20669;-73
2022/01/22 12:18:11;;;;;;;3.30;1.23;;;;;;;12.92;32.96;100803.72;4501450;31;20344;-73
2022/01/22 12:23:15;;;;;;;1.60;0.98;;;;;;;11.63;31.86;100799.09;4501606;31;20076;-73
2022/01/22 12:25:43;;;;;;;4.00;1.70;;;;;;;11.52;32.42;100800.97;4501240;31;20171;-73
2022/01/22 12:28:31;;;;;;;3.67;1.25;;;;;;;10.36;33.08;100792.09;4501489;31;20502;-73
2022/01/22 12:31:07;;;;;;;1.05;1.00;;;;;;;9.58;34.63;100795.78;4501205;31;20095;-73
2022/01/22 12:33:34;;;;;;;1.83;1.00;;;;;;;10.46;33.45;100806.97;4501297;31;20115;-73
2022/01/22 12:36:05;;;;;;;4.25;1.60;;;;;;;10.51;33.81;100813.09;4501391;31;20088;-73
2022/01/22 12:38:46;;;;;;;2.45;1.35;;;;;;;10.43;34.11;100814.88;4501465;31;20096;-73
2022/01/22 12:47:06;;;;;;;1.65;1.27;;;;;;;11.07;34.57;100803.09;4501357;31;20094;-73
2022/01/22 12:49:36;;;;;;;1.83;1.30;;;;;;;12.87;31.47;100810.84;4501203;31;20144;-73
2022/01/22 12:52:06;;;;;;;3.05;1.45;;;;;;;11.41;31.22;100814.25;4500993;31;20095;-73
2022/01/22 12:54:42;;;;;;;1.67;1.33;;;;;;;11.15;31.39;100805.66;4501111;31;20446;-73
2022/01/22 12:57:20;;;;;;;1.25;1.15;;;;;;;11.83;33.38;100806.81;4501081;31;20471;-73
2022/01/22 12:59:47;;;;;;;1.25;1.15;;;;;;;11.62;32.89;100812.28;4500967;31;20114;-73
2022/01/22 13:02:41;;;;;;;1.55;1.15;;;;;;;11.89;31.56;100800.63;4501382;31;20107;-73
2022/01/22 13:05:11;;;;;;;2.17;1.98;;;;;;;14.38;30.63;100798.53;4500891;31;20107;-73
2022/01/22 13:07:51;;;;;;;1.65;1.23;;;;;;;14.50;27.30;100800.06;4501089;31;20071;-73
2022/01/22 13:10:25;;;;;;;1.30;1.20;;;;;;;14.27;27.23;100788.09;4501032;31;20810;-73
2022/01/22 13:12:56;;;;;;;2.17;1.30;;;;;;;13.69;28.72;100788.38;4500896;31;20634;-73
2022/01/22 13:15:23;;;;;;;1.67;1.37;;;;;;;13.83;26.93;100787.22;4500763;31;20471;-73
2022/01/22 13:17:58;;;;;;;2.03;1.20;;;;;;;12.28;28.31;100786.09;4500728;31;20106;-73
2022/01/22 13:20:29;;;;;;;1.73;1.30;;;;;;;12.48;28.59;100788.50;4500925;31;20076;-73
2022/01/22 13:22:58;;;;;;;1.10;1.00;;;;;;;12.63;29.44;100782.09;4500745;31;20084;-73
2022/01/22 13:25:27;;;;;;;1.55;1.23;;;;;;;12.17;29.27;100790.63;4500794;31;20119;-73
2022/01/22 13:28:00;;;;;;;1.83;1.23;;;;;;;11.73;28.99;100784.94;4500778;31;20466;-73
2022/01/22 13:30:41;;;;;;;2.33;1.33;;;;;;;11.45;29.12;100792.22;4500408;31;20468;-73